sensor_id;sensor_type;location;lat;lon;timestamp;P1;durP1;ratioP1;P2;durP2;ratioP2
22622;SDS011;11478;51.094;7.030;2023-03-23T00:00:01;9.77;;;3.63;;
22622;SDS011;11478;51.094;7.030;2023-03-23T00:02:32;6.55;;;3.38;;
22622;SDS011;11478;51.094;7.030;2023-03-23T00:05:01;6.60;;;3.58;;
22622;SDS011;11478;51.094;7.030;2023-03-23T00:07:28;7.32;;;3.20;;
22622;SDS011;11478;51.094;7.030;2023-03-23T00:09:55;8.07;;;3.17;;
22622;SDS011;11478;51.094;7.030;2023-03-23T00:12:26;5.70;;;3.33;;
22622;SDS011;11478;51.094;7.030;2023-03-23T00:15:00;6.70;;;3.13;;
22622;SDS011;11478;51.094;7.030;2023-03-23T00:17:32;6.70;;;2.78;;
22622;SDS011;11478;51.094;7.030;2023-03-23T00:19:58;7.03;;;3.65;;
22622;SDS011;11478;51.094;7.030;2023-03-23T00:22:27;8.85;;;3.85;;
22622;SDS011;11478;51.094;7.030;2023-03-23T00:24:53;6.10;;;3.90;;
22622;SDS011;11478;51.094;7.030;2023-03-23T00:27:39;7.47;;;3.20;;
22622;SDS011;11478;51.094;7.030;2023-03-23T00:30:05;10.20;;;2.85;;
22622;SDS011;11478;51.094;7.030;2023-03-23T00:32:34;8.13;;;3.50;;
22622;SDS011;11478;51.094;7.030;2023-03-23T00:35:00;8.18;;;4.00;;
22622;SDS011;11478;51.094;7.030;2023-03-23T00:37:27;6.82;;;3.55;;
22622;SDS011;11478;51.094;7.030;2023-03-23T00:39:53;8.65;;;3.60;;
22622;SDS011;11478;51.094;7.030;2023-03-23T00:42:25;6.00;;;3.55;;
22622;SDS011;11478;51.094;7.030;2023-03-23T00:44:51;6.70;;;3.17;;
22622;SDS011;11478;51.094;7.030;2023-03-23T00:47:25;6.65;;;2.88;;
22622;SDS011;11478;51.094;7.030;2023-03-23T00:49:52;9.30;;;2.97;;
22622;SDS011;11478;51.094;7.030;2023-03-23T00:52:20;6.38;;;3.63;;
22622;SDS011;11478;51.094;7.030;2023-03-23T00:54:53;9.65;;;3.47;;
22622;SDS011;11478;51.094;7.030;2023-03-23T00:57:19;6.28;;;2.80;;
22622;SDS011;11478;51.094;7.030;2023-03-23T00:59:49;8.18;;;3.38;;
22622;SDS011;11478;51.094;7.030;2023-03-23T01:02:16;4.82;;;3.00;;
22622;SDS011;11478;51.094;7.030;2023-03-23T01:04:43;8.77;;;3.00;;
22622;SDS011;11478;51.094;7.030;2023-03-23T01:07:10;4.15;;;2.47;;
22622;SDS011;11478;51.094;7.030;2023-03-23T01:09:40;7.28;;;2.63;;
22622;SDS011;11478;51.094;7.030;2023-03-23T01:12:09;6.38;;;3.45;;
22622;SDS011;11478;51.094;7.030;2023-03-23T01:14:51;4.88;;;2.83;;
22622;SDS011;11478;51.094;7.030;2023-03-23T01:17:17;5.75;;;2.30;;
22622;SDS011;11478;51.094;7.030;2023-03-23T01:19:44;5.95;;;2.60;;
22622;SDS011;11478;51.094;7.030;2023-03-23T01:22:10;8.10;;;2.50;;
22622;SDS011;11478;51.094;7.030;2023-03-23T01:24:36;4.47;;;2.20;;
22622;SDS011;11478;51.094;7.030;2023-03-23T01:27:02;8.85;;;2.80;;
22622;SDS011;11478;51.094;7.030;2023-03-23T01:29:32;3.30;;;2.10;;
22622;SDS011;11478;51.094;7.030;2023-03-23T01:31:59;7.55;;;2.30;;
22622;SDS011;11478;51.094;7.030;2023-03-23T01:34:25;5.50;;;2.40;;
22622;SDS011;11478;51.094;7.030;2023-03-23T01:36:51;5.95;;;2.38;;
22622;SDS011;11478;51.094;7.030;2023-03-23T01:39:17;4.60;;;2.42;;
22622;SDS011;11478;51.094;7.030;2023-03-23T01:41:43;5.40;;;2.40;;
22622;SDS011;11478;51.094;7.030;2023-03-23T01:46:44;7.07;;;3.05;;
22622;SDS011;11478;51.094;7.030;2023-03-23T01:49:13;5.80;;;2.70;;
22622;SDS011;11478;51.094;7.030;2023-03-23T01:51:48;9.98;;;2.90;;
22622;SDS011;11478;51.094;7.030;2023-03-23T01:54:20;8.90;;;2.90;;
22622;SDS011;11478;51.094;7.030;2023-03-23T01:56:49;5.78;;;2.92;;
22622;SDS011;11478;51.094;7.030;2023-03-23T01:59:25;7.75;;;3.22;;
22622;SDS011;11478;51.094;7.030;2023-03-23T02:01:53;7.13;;;3.78;;
22622;SDS011;11478;51.094;7.030;2023-03-23T02:04:35;10.35;;;4.00;;
22622;SDS011;11478;51.094;7.030;2023-03-23T02:07:01;8.38;;;3.83;;
22622;SDS011;11478;51.094;7.030;2023-03-23T02:12:44;8.60;;;4.13;;
22622;SDS011;11478;51.094;7.030;2023-03-23T02:38:00;7.72;;;4.32;;
22622;SDS011;11478;51.094;7.030;2023-03-23T02:43:31;11.10;;;4.47;;
22622;SDS011;11478;51.094;7.030;2023-03-23T02:56:54;10.95;;;4.68;;
22622;SDS011;11478;51.094;7.030;2023-03-23T02:59:22;8.77;;;4.78;;
22622;SDS011;11478;51.094;7.030;2023-03-23T03:01:53;8.30;;;4.43;;
22622;SDS011;11478;51.094;7.030;2023-03-23T03:04:25;8.63;;;4.57;;
22622;SDS011;11478;51.094;7.030;2023-03-23T03:07:01;9.95;;;4.65;;
22622;SDS011;11478;51.094;7.030;2023-03-23T03:09:59;6.72;;;4.40;;
22622;SDS011;11478;51.094;7.030;2023-03-23T03:18:05;7.60;;;4.40;;
22622;SDS011;11478;51.094;7.030;2023-03-23T03:20:58;8.07;;;4.20;;
22622;SDS011;11478;51.094;7.030;2023-03-23T03:23:29;6.88;;;4.13;;
22622;SDS011;11478;51.094;7.030;2023-03-23T03:25:58;7.63;;;4.47;;
22622;SDS011;11478;51.094;7.030;2023-03-23T03:28:28;6.10;;;4.18;;
22622;SDS011;11478;51.094;7.030;2023-03-23T03:30:55;7.07;;;3.63;;
22622;SDS011;11478;51.094;7.030;2023-03-23T03:33:27;8.18;;;3.95;;
22622;SDS011;11478;51.094;7.030;2023-03-23T03:35:56;6.88;;;4.38;;
22622;SDS011;11478;51.094;7.030;2023-03-23T03:38:24;6.22;;;4.05;;
22622;SDS011;11478;51.094;7.030;2023-03-23T03:40:51;10.45;;;3.70;;
22622;SDS011;11478;51.094;7.030;2023-03-23T03:43:18;7.60;;;3.67;;
22622;SDS011;11478;51.094;7.030;2023-03-23T03:45:44;12.18;;;4.72;;
22622;SDS011;11478;51.094;7.030;2023-03-23T03:48:17;10.63;;;4.25;;
22622;SDS011;11478;51.094;7.030;2023-03-23T03:50:42;10.65;;;4.38;;
22622;SDS011;11478;51.094;7.030;2023-03-23T03:53:08;6.20;;;4.00;;
22622;SDS011;11478;51.094;7.030;2023-03-23T03:55:35;9.43;;;3.92;;
22622;SDS011;11478;51.094;7.030;2023-03-23T03:58:03;11.35;;;4.15;;
22622;SDS011;11478;51.094;7.030;2023-03-23T04:00:30;7.13;;;3.78;;
22622;SDS011;11478;51.094;7.030;2023-03-23T04:02:56;5.50;;;3.40;;
22622;SDS011;11478;51.094;7.030;2023-03-23T04:05:25;9.35;;;3.75;;
22622;SDS011;11478;51.094;7.030;2023-03-23T04:07:54;6.47;;;3.30;;
22622;SDS011;11478;51.094;7.030;2023-03-23T04:10:26;9.02;;;3.88;;
22622;SDS011;11478;51.094;7.030;2023-03-23T04:12:54;9.45;;;3.83;;
22622;SDS011;11478;51.094;7.030;2023-03-23T04:15:25;5.20;;;3.28;;
22622;SDS011;11478;51.094;7.030;2023-03-23T04:17:52;6.85;;;3.10;;
22622;SDS011;11478;51.094;7.030;2023-03-23T04:20:20;3.75;;;2.63;;
22622;SDS011;11478;51.094;7.030;2023-03-23T04:22:46;4.60;;;3.00;;
22622;SDS011;11478;51.094;7.030;2023-03-23T04:25:24;8.23;;;3.10;;
22622;SDS011;11478;51.094;7.030;2023-03-23T04:27:50;5.53;;;3.08;;
22622;SDS011;11478;51.094;7.030;2023-03-23T04:30:24;3.85;;;2.50;;
22622;SDS011;11478;51.094;7.030;2023-03-23T04:32:52;4.45;;;2.70;;
22622;SDS011;11478;51.094;7.030;2023-03-23T04:35:21;3.78;;;2.95;;
22622;SDS011;11478;51.094;7.030;2023-03-23T04:37:49;4.80;;;2.72;;
22622;SDS011;11478;51.094;7.030;2023-03-23T04:40:16;4.55;;;2.67;;
22622;SDS011;11478;51.094;7.030;2023-03-23T04:42:42;3.53;;;2.35;;
22622;SDS011;11478;51.094;7.030;2023-03-23T04:45:13;6.47;;;2.30;;
22622;SDS011;11478;51.094;7.030;2023-03-23T04:47:41;4.13;;;2.17;;
22622;SDS011;11478;51.094;7.030;2023-03-23T04:50:14;4.20;;;2.37;;
22622;SDS011;11478;51.094;7.030;2023-03-23T04:52:40;5.05;;;2.25;;
22622;SDS011;11478;51.094;7.030;2023-03-23T04:55:11;3.35;;;2.40;;
22622;SDS011;11478;51.094;7.030;2023-03-23T04:57:38;5.93;;;2.40;;
22622;SDS011;11478;51.094;7.030;2023-03-23T05:00:04;6.18;;;2.40;;
22622;SDS011;11478;51.094;7.030;2023-03-23T05:02:35;3.60;;;2.08;;
22622;SDS011;11478;51.094;7.030;2023-03-23T05:05:02;4.43;;;2.13;;
22622;SDS011;11478;51.094;7.030;2023-03-23T05:07:28;6.10;;;2.20;;
22622;SDS011;11478;51.094;7.030;2023-03-23T05:12:28;3.80;;;2.47;;
22622;SDS011;11478;51.094;7.030;2023-03-23T05:14:57;4.88;;;2.13;;
22622;SDS011;11478;51.094;7.030;2023-03-23T05:17:28;4.57;;;2.60;;
22622;SDS011;11478;51.094;7.030;2023-03-23T05:19:58;5.75;;;2.58;;
22622;SDS011;11478;51.094;7.030;2023-03-23T05:22:28;3.85;;;2.30;;
22622;SDS011;11478;51.094;7.030;2023-03-23T05:24:57;5.53;;;2.78;;
22622;SDS011;11478;51.094;7.030;2023-03-23T05:27:25;3.72;;;2.63;;
22622;SDS011;11478;51.094;7.030;2023-03-23T05:29:53;4.63;;;2.65;;
22622;SDS011;11478;51.094;7.030;2023-03-23T05:32:20;4.55;;;2.25;;
22622;SDS011;11478;51.094;7.030;2023-03-23T05:34:45;5.85;;;2.70;;
22622;SDS011;11478;51.094;7.030;2023-03-23T05:37:12;4.93;;;2.42;;
22622;SDS011;11478;51.094;7.030;2023-03-23T05:39:38;5.40;;;2.72;;
22622;SDS011;11478;51.094;7.030;2023-03-23T05:42:22;4.88;;;2.33;;
22622;SDS011;11478;51.094;7.030;2023-03-23T05:44:48;6.15;;;2.50;;
22622;SDS011;11478;51.094;7.030;2023-03-23T05:47:17;5.20;;;2.50;;
22622;SDS011;11478;51.094;7.030;2023-03-23T05:49:43;5.47;;;2.38;;
22622;SDS011;11478;51.094;7.030;2023-03-23T05:52:10;5.43;;;2.85;;
22622;SDS011;11478;51.094;7.030;2023-03-23T05:54:35;7.45;;;2.67;;
22622;SDS011;11478;51.094;7.030;2023-03-23T05:57:03;5.70;;;2.60;;
22622;SDS011;11478;51.094;7.030;2023-03-23T05:59:29;7.90;;;2.83;;
22622;SDS011;11478;51.094;7.030;2023-03-23T06:02:00;3.05;;;2.70;;
22622;SDS011;11478;51.094;7.030;2023-03-23T06:04:26;4.70;;;2.58;;
22622;SDS011;11478;51.094;7.030;2023-03-23T06:06:56;5.80;;;2.95;;
22622;SDS011;11478;51.094;7.030;2023-03-23T06:09:22;6.70;;;2.70;;
22622;SDS011;11478;51.094;7.030;2023-03-23T06:11:52;6.60;;;2.53;;
22622;SDS011;11478;51.094;7.030;2023-03-23T06:14:18;5.07;;;2.35;;
22622;SDS011;11478;51.094;7.030;2023-03-23T06:16:53;4.35;;;2.58;;
22622;SDS011;11478;51.094;7.030;2023-03-23T06:19:20;7.22;;;2.83;;
22622;SDS011;11478;51.094;7.030;2023-03-23T06:21:46;3.95;;;2.65;;
22622;SDS011;11478;51.094;7.030;2023-03-23T06:24:16;6.93;;;2.88;;
22622;SDS011;11478;51.094;7.030;2023-03-23T06:29:34;5.60;;;2.92;;
22622;SDS011;11478;51.094;7.030;2023-03-23T06:32:03;7.70;;;2.90;;
22622;SDS011;11478;51.094;7.030;2023-03-23T06:34:30;5.68;;;2.50;;
22622;SDS011;11478;51.094;7.030;2023-03-23T06:36:59;3.72;;;2.58;;
22622;SDS011;11478;51.094;7.030;2023-03-23T06:39:27;6.88;;;2.60;;
22622;SDS011;11478;51.094;7.030;2023-03-23T06:41:56;5.03;;;2.50;;
22622;SDS011;11478;51.094;7.030;2023-03-23T06:44:24;4.70;;;2.30;;
22622;SDS011;11478;51.094;7.030;2023-03-23T06:46:53;8.38;;;2.83;;
22622;SDS011;11478;51.094;7.030;2023-03-23T06:49:19;4.63;;;2.70;;
22622;SDS011;11478;51.094;7.030;2023-03-23T06:51:47;8.18;;;2.78;;
22622;SDS011;11478;51.094;7.030;2023-03-23T06:54:12;5.72;;;2.75;;
22622;SDS011;11478;51.094;7.030;2023-03-23T06:56:38;4.10;;;2.63;;
22622;SDS011;11478;51.094;7.030;2023-03-23T06:59:07;6.95;;;2.75;;
22622;SDS011;11478;51.094;7.030;2023-03-23T07:01:33;3.97;;;2.65;;
22622;SDS011;11478;51.094;7.030;2023-03-23T07:03:59;5.03;;;2.75;;
22622;SDS011;11478;51.094;7.030;2023-03-23T07:06:25;6.63;;;3.70;;
22622;SDS011;11478;51.094;7.030;2023-03-23T07:08:53;7.25;;;3.35;;
22622;SDS011;11478;51.094;7.030;2023-03-23T07:11:19;6.68;;;3.47;;
22622;SDS011;11478;51.094;7.030;2023-03-23T07:13:52;7.60;;;3.60;;
22622;SDS011;11478;51.094;7.030;2023-03-23T07:16:18;7.15;;;3.75;;
22622;SDS011;11478;51.094;7.030;2023-03-23T07:21:14;9.82;;;3.58;;
22622;SDS011;11478;51.094;7.030;2023-03-23T07:23:40;6.60;;;3.72;;
22622;SDS011;11478;51.094;7.030;2023-03-23T07:26:06;11.05;;;3.80;;
22622;SDS011;11478;51.094;7.030;2023-03-23T07:28:37;8.55;;;3.30;;
22622;SDS011;11478;51.094;7.030;2023-03-23T07:31:05;9.20;;;3.97;;
22622;SDS011;11478;51.094;7.030;2023-03-23T07:33:34;8.55;;;3.25;;
22622;SDS011;11478;51.094;7.030;2023-03-23T07:36:01;8.25;;;3.28;;
22622;SDS011;11478;51.094;7.030;2023-03-23T07:38:28;6.88;;;3.05;;
22622;SDS011;11478;51.094;7.030;2023-03-23T07:40:55;9.85;;;2.97;;
22622;SDS011;11478;51.094;7.030;2023-03-23T07:43:29;6.97;;;3.55;;
22622;SDS011;11478;51.094;7.030;2023-03-23T07:45:55;7.32;;;2.63;;
22622;SDS011;11478;51.094;7.030;2023-03-23T07:48:22;12.95;;;5.93;;
22622;SDS011;11478;51.094;7.030;2023-03-23T07:50:48;7.32;;;3.53;;
22622;SDS011;11478;51.094;7.030;2023-03-23T07:53:16;9.35;;;2.92;;
22622;SDS011;11478;51.094;7.030;2023-03-23T07:58:11;8.45;;;2.70;;
22622;SDS011;11478;51.094;7.030;2023-03-23T08:00:45;12.80;;;2.90;;
22622;SDS011;11478;51.094;7.030;2023-03-23T08:03:13;8.45;;;4.85;;
22622;SDS011;11478;51.094;7.030;2023-03-23T08:08:11;5.90;;;2.97;;
22622;SDS011;11478;51.094;7.030;2023-03-23T08:10:37;7.93;;;3.42;;
22622;SDS011;11478;51.094;7.030;2023-03-23T08:13:03;6.95;;;3.67;;
22622;SDS011;11478;51.094;7.030;2023-03-23T08:15:31;8.32;;;3.60;;
22622;SDS011;11478;51.094;7.030;2023-03-23T08:17:57;7.70;;;3.83;;
22622;SDS011;11478;51.094;7.030;2023-03-23T08:20:24;7.78;;;3.60;;
22622;SDS011;11478;51.094;7.030;2023-03-23T08:22:54;4.78;;;2.70;;
22622;SDS011;11478;51.094;7.030;2023-03-23T08:25:23;7.90;;;3.35;;
22622;SDS011;11478;51.094;7.030;2023-03-23T08:27:51;8.00;;;3.17;;
22622;SDS011;11478;51.094;7.030;2023-03-23T08:30:20;5.53;;;2.50;;
22622;SDS011;11478;51.094;7.030;2023-03-23T08:32:54;8.63;;;2.80;;
22622;SDS011;11478;51.094;7.030;2023-03-23T08:35:34;9.43;;;2.67;;
22622;SDS011;11478;51.094;7.030;2023-03-23T08:38:00;8.70;;;3.13;;
22622;SDS011;11478;51.094;7.030;2023-03-23T08:40:26;7.40;;;4.18;;
22622;SDS011;11478;51.094;7.030;2023-03-23T08:42:52;8.48;;;3.60;;
22622;SDS011;11478;51.094;7.030;2023-03-23T08:45:22;12.00;;;5.32;;
22622;SDS011;11478;51.094;7.030;2023-03-23T08:47:49;11.18;;;5.03;;
22622;SDS011;11478;51.094;7.030;2023-03-23T08:50:21;10.35;;;3.30;;
22622;SDS011;11478;51.094;7.030;2023-03-23T08:52:49;4.80;;;2.50;;
22622;SDS011;11478;51.094;7.030;2023-03-23T08:55:16;10.60;;;2.40;;
22622;SDS011;11478;51.094;7.030;2023-03-23T08:57:43;8.23;;;3.60;;
22622;SDS011;11478;51.094;7.030;2023-03-23T09:00:12;6.57;;;1.90;;
22622;SDS011;11478;51.094;7.030;2023-03-23T09:02:45;4.40;;;2.45;;
22622;SDS011;11478;51.094;7.030;2023-03-23T09:05:15;9.50;;;3.50;;
22622;SDS011;11478;51.094;7.030;2023-03-23T09:07:44;7.20;;;2.25;;
22622;SDS011;11478;51.094;7.030;2023-03-23T09:12:45;4.55;;;2.05;;
22622;SDS011;11478;51.094;7.030;2023-03-23T09:15:17;10.38;;;2.30;;
22622;SDS011;11478;51.094;7.030;2023-03-23T09:17:49;8.80;;;2.10;;
22622;SDS011;11478;51.094;7.030;2023-03-23T09:20:18;6.95;;;1.90;;
22622;SDS011;11478;51.094;7.030;2023-03-23T09:22:51;5.95;;;2.08;;
22622;SDS011;11478;51.094;7.030;2023-03-23T09:28:07;6.32;;;2.00;;
22622;SDS011;11478;51.094;7.030;2023-03-23T09:30:39;6.20;;;2.05;;
22622;SDS011;11478;51.094;7.030;2023-03-23T09:33:05;6.25;;;1.63;;
22622;SDS011;11478;51.094;7.030;2023-03-23T09:35:36;6.78;;;1.55;;
22622;SDS011;11478;51.094;7.030;2023-03-23T09:38:04;7.25;;;2.13;;
22622;SDS011;11478;51.094;7.030;2023-03-23T09:40:50;6.57;;;1.80;;
22622;SDS011;11478;51.094;7.030;2023-03-23T09:43:22;6.68;;;1.70;;
22622;SDS011;11478;51.094;7.030;2023-03-23T09:48:58;5.70;;;1.60;;
22622;SDS011;11478;51.094;7.030;2023-03-23T09:54:26;9.85;;;1.90;;
22622;SDS011;11478;51.094;7.030;2023-03-23T10:00:12;5.70;;;1.67;;
22622;SDS011;11478;51.094;7.030;2023-03-23T10:02:49;7.28;;;1.85;;
22622;SDS011;11478;51.094;7.030;2023-03-23T10:08:19;8.40;;;2.50;;
22622;SDS011;11478;51.094;7.030;2023-03-23T10:16:41;7.60;;;2.10;;
22622;SDS011;11478;51.094;7.030;2023-03-23T10:23:09;7.43;;;1.90;;
22622;SDS011;11478;51.094;7.030;2023-03-23T10:29:04;7.68;;;2.08;;
22622;SDS011;11478;51.094;7.030;2023-03-23T10:31:38;6.28;;;2.17;;
22622;SDS011;11478;51.094;7.030;2023-03-23T10:39:48;9.10;;;5.15;;
22622;SDS011;11478;51.094;7.030;2023-03-23T10:42:21;8.73;;;4.13;;
22622;SDS011;11478;51.094;7.030;2023-03-23T10:45:12;13.02;;;3.90;;
22622;SDS011;11478;51.094;7.030;2023-03-23T10:47:58;9.43;;;3.30;;
22622;SDS011;11478;51.094;7.030;2023-03-23T10:50:59;9.35;;;3.10;;
22622;SDS011;11478;51.094;7.030;2023-03-23T10:56:27;6.20;;;2.28;;
22622;SDS011;11478;51.094;7.030;2023-03-23T11:01:47;5.15;;;2.38;;
22622;SDS011;11478;51.094;7.030;2023-03-23T11:04:17;8.00;;;2.30;;
22622;SDS011;11478;51.094;7.030;2023-03-23T11:06:54;5.95;;;2.38;;
22622;SDS011;11478;51.094;7.030;2023-03-23T11:09:39;8.63;;;2.83;;
22622;SDS011;11478;51.094;7.030;2023-03-23T11:12:17;6.50;;;2.70;;
22622;SDS011;11478;51.094;7.030;2023-03-23T11:14:44;6.07;;;2.42;;
22622;SDS011;11478;51.094;7.030;2023-03-23T11:17:20;10.65;;;3.70;;
22622;SDS011;11478;51.094;7.030;2023-03-23T11:19:51;11.35;;;3.03;;
22622;SDS011;11478;51.094;7.030;2023-03-23T11:22:28;8.77;;;3.78;;
22622;SDS011;11478;51.094;7.030;2023-03-23T11:25:02;8.23;;;2.53;;
22622;SDS011;11478;51.094;7.030;2023-03-23T11:27:30;4.70;;;2.50;;
22622;SDS011;11478;51.094;7.030;2023-03-23T11:29:59;6.80;;;2.00;;
22622;SDS011;11478;51.094;7.030;2023-03-23T11:32:33;4.65;;;1.92;;
22622;SDS011;11478;51.094;7.030;2023-03-23T11:37:41;5.60;;;2.30;;
22622;SDS011;11478;51.094;7.030;2023-03-23T11:42:46;8.32;;;2.42;;
22622;SDS011;11478;51.094;7.030;2023-03-23T11:57:09;5.50;;;2.70;;
22622;SDS011;11478;51.094;7.030;2023-03-23T11:59:38;6.03;;;2.10;;
22622;SDS011;11478;51.094;7.030;2023-03-23T12:11:38;7.05;;;5.07;;
22622;SDS011;11478;51.094;7.030;2023-03-23T12:28:15;9.65;;;5.80;;
22622;SDS011;11478;51.094;7.030;2023-03-23T12:44:39;8.85;;;5.55;;
22622;SDS011;11478;51.094;7.030;2023-03-23T12:50:05;10.10;;;6.05;;
22622;SDS011;11478;51.094;7.030;2023-03-23T12:52:38;7.75;;;5.60;;
22622;SDS011;11478;51.094;7.030;2023-03-23T12:55:32;6.68;;;5.10;;
22622;SDS011;11478;51.094;7.030;2023-03-23T12:58:08;6.22;;;4.60;;
22622;SDS011;11478;51.094;7.030;2023-03-23T13:01:26;6.70;;;4.45;;
22622;SDS011;11478;51.094;7.030;2023-03-23T13:03:42;6.20;;;4.03;;
22622;SDS011;11478;51.094;7.030;2023-03-23T13:06:20;9.32;;;4.22;;
22622;SDS011;11478;51.094;7.030;2023-03-23T13:11:48;4.50;;;3.60;;
22622;SDS011;11478;51.094;7.030;2023-03-23T13:22:49;7.10;;;3.85;;
22622;SDS011;11478;51.094;7.030;2023-03-23T13:25:39;6.75;;;4.10;;
22622;SDS011;11478;51.094;7.030;2023-03-23T13:29:14;7.22;;;3.90;;
22622;SDS011;11478;51.094;7.030;2023-03-23T13:31:34;9.63;;;6.15;;
22622;SDS011;11478;51.094;7.030;2023-03-23T13:34:14;9.38;;;5.22;;
22622;SDS011;11478;51.094;7.030;2023-03-23T13:36:41;9.32;;;5.20;;
22622;SDS011;11478;51.094;7.030;2023-03-23T13:42:23;9.70;;;5.80;;
22622;SDS011;11478;51.094;7.030;2023-03-23T13:47:41;9.57;;;6.00;;
22622;SDS011;11478;51.094;7.030;2023-03-23T13:52:59;10.68;;;6.20;;
22622;SDS011;11478;51.094;7.030;2023-03-23T13:55:42;11.80;;;5.50;;
22622;SDS011;11478;51.094;7.030;2023-03-23T13:58:21;10.93;;;2.25;;
22622;SDS011;11478;51.094;7.030;2023-03-23T14:01:01;4.10;;;1.45;;
22622;SDS011;11478;51.094;7.030;2023-03-23T14:03:40;3.85;;;1.38;;
22622;SDS011;11478;51.094;7.030;2023-03-23T14:06:21;3.78;;;1.33;;
22622;SDS011;11478;51.094;7.030;2023-03-23T14:08:53;4.20;;;0.98;;
22622;SDS011;11478;51.094;7.030;2023-03-23T14:11:29;2.65;;;0.98;;
22622;SDS011;11478;51.094;7.030;2023-03-23T14:17:46;3.20;;;1.55;;
22622;SDS011;11478;51.094;7.030;2023-03-23T14:25:56;4.60;;;1.52;;
22622;SDS011;11478;51.094;7.030;2023-03-23T14:28:36;5.95;;;1.45;;
22622;SDS011;11478;51.094;7.030;2023-03-23T14:31:08;5.95;;;1.67;;
22622;SDS011;11478;51.094;7.030;2023-03-23T14:33:44;5.00;;;1.58;;
22622;SDS011;11478;51.094;7.030;2023-03-23T14:36:18;6.60;;;1.63;;
22622;SDS011;11478;51.094;7.030;2023-03-23T14:38:46;5.68;;;1.67;;
22622;SDS011;11478;51.094;7.030;2023-03-23T14:41:17;4.75;;;1.90;;
22622;SDS011;11478;51.094;7.030;2023-03-23T14:43:43;4.60;;;1.85;;
22622;SDS011;11478;51.094;7.030;2023-03-23T14:46:10;3.50;;;1.67;;
22622;SDS011;11478;51.094;7.030;2023-03-23T14:48:38;4.22;;;1.70;;
22622;SDS011;11478;51.094;7.030;2023-03-23T14:51:07;8.55;;;1.88;;
22622;SDS011;11478;51.094;7.030;2023-03-23T14:53:45;7.28;;;1.85;;
22622;SDS011;11478;51.094;7.030;2023-03-23T14:56:19;4.47;;;2.00;;
22622;SDS011;11478;51.094;7.030;2023-03-23T14:59:00;7.15;;;1.90;;
22622;SDS011;11478;51.094;7.030;2023-03-23T15:01:33;7.60;;;2.33;;
22622;SDS011;11478;51.094;7.030;2023-03-23T15:04:20;7.38;;;1.90;;
22622;SDS011;11478;51.094;7.030;2023-03-23T15:06:54;11.60;;;2.50;;
22622;SDS011;11478;51.094;7.030;2023-03-23T15:09:31;6.15;;;2.13;;
22622;SDS011;11478;51.094;7.030;2023-03-23T15:11:59;6.53;;;2.45;;
22622;SDS011;11478;51.094;7.030;2023-03-23T15:17:24;6.40;;;2.50;;
22622;SDS011;11478;51.094;7.030;2023-03-23T15:22:35;8.88;;;2.70;;
22622;SDS011;11478;51.094;7.030;2023-03-23T15:33:02;11.65;;;3.80;;
22622;SDS011;11478;51.094;7.030;2023-03-23T15:35:47;11.60;;;3.67;;
22622;SDS011;11478;51.094;7.030;2023-03-23T15:41:22;9.02;;;3.40;;
22622;SDS011;11478;51.094;7.030;2023-03-23T15:43:54;8.32;;;4.03;;
22622;SDS011;11478;51.094;7.030;2023-03-23T15:46:35;10.48;;;3.65;;
22622;SDS011;11478;51.094;7.030;2023-03-23T15:49:18;5.97;;;2.80;;
22622;SDS011;11478;51.094;7.030;2023-03-23T15:51:46;12.55;;;2.95;;
22622;SDS011;11478;51.094;7.030;2023-03-23T15:54:16;9.70;;;2.65;;
22622;SDS011;11478;51.094;7.030;2023-03-23T15:56:43;6.75;;;2.58;;
22622;SDS011;11478;51.094;7.030;2023-03-23T15:59:09;5.90;;;2.50;;
22622;SDS011;11478;51.094;7.030;2023-03-23T16:01:36;7.47;;;2.60;;
22622;SDS011;11478;51.094;7.030;2023-03-23T16:04:06;8.30;;;2.55;;
22622;SDS011;11478;51.094;7.030;2023-03-23T16:06:36;6.00;;;2.83;;
22622;SDS011;11478;51.094;7.030;2023-03-23T16:09:04;6.75;;;2.60;;
22622;SDS011;11478;51.094;7.030;2023-03-23T16:14:22;8.55;;;3.13;;
22622;SDS011;11478;51.094;7.030;2023-03-23T16:16:49;13.02;;;2.80;;
22622;SDS011;11478;51.094;7.030;2023-03-23T16:19:17;8.38;;;2.85;;
22622;SDS011;11478;51.094;7.030;2023-03-23T16:25:06;8.43;;;2.65;;
22622;SDS011;11478;51.094;7.030;2023-03-23T16:27:43;9.10;;;2.58;;
22622;SDS011;11478;51.094;7.030;2023-03-23T16:30:17;9.10;;;3.38;;
22622;SDS011;11478;51.094;7.030;2023-03-23T16:33:08;6.05;;;2.42;;
22622;SDS011;11478;51.094;7.030;2023-03-23T16:35:34;10.18;;;2.90;;
22622;SDS011;11478;51.094;7.030;2023-03-23T16:38:05;8.35;;;2.70;;
22622;SDS011;11478;51.094;7.030;2023-03-23T16:40:35;10.52;;;2.97;;
22622;SDS011;11478;51.094;7.030;2023-03-23T16:43:04;13.35;;;3.13;;
22622;SDS011;11478;51.094;7.030;2023-03-23T16:45:37;6.97;;;2.80;;
22622;SDS011;11478;51.094;7.030;2023-03-23T16:48:14;8.98;;;3.03;;
22622;SDS011;11478;51.094;7.030;2023-03-23T16:50:40;8.30;;;2.58;;
22622;SDS011;11478;51.094;7.030;2023-03-23T16:53:08;8.30;;;2.85;;
22622;SDS011;11478;51.094;7.030;2023-03-23T16:55:34;11.85;;;2.97;;
22622;SDS011;11478;51.094;7.030;2023-03-23T16:58:04;10.90;;;3.22;;
22622;SDS011;11478;51.094;7.030;2023-03-23T17:00:36;10.48;;;3.22;;
22622;SDS011;11478;51.094;7.030;2023-03-23T17:03:04;12.03;;;3.20;;
22622;SDS011;11478;51.094;7.030;2023-03-23T17:05:36;11.07;;;3.35;;
22622;SDS011;11478;51.094;7.030;2023-03-23T17:08:05;13.45;;;3.70;;
22622;SDS011;11478;51.094;7.030;2023-03-23T17:10:38;12.40;;;4.00;;
22622;SDS011;11478;51.094;7.030;2023-03-23T17:13:07;17.88;;;3.78;;
22622;SDS011;11478;51.094;7.030;2023-03-23T17:15:36;12.32;;;3.38;;
22622;SDS011;11478;51.094;7.030;2023-03-23T17:18:06;12.55;;;3.38;;
22622;SDS011;11478;51.094;7.030;2023-03-23T17:20:34;11.90;;;3.90;;
22622;SDS011;11478;51.094;7.030;2023-03-23T17:23:01;11.10;;;3.30;;
22622;SDS011;11478;51.094;7.030;2023-03-23T17:25:34;11.02;;;3.33;;
22622;SDS011;11478;51.094;7.030;2023-03-23T17:28:07;12.27;;;3.50;;
22622;SDS011;11478;51.094;7.030;2023-03-23T17:30:40;14.55;;;3.40;;
22622;SDS011;11478;51.094;7.030;2023-03-23T17:33:10;11.60;;;3.20;;
22622;SDS011;11478;51.094;7.030;2023-03-23T17:39:03;14.40;;;3.17;;
22622;SDS011;11478;51.094;7.030;2023-03-23T17:41:37;8.43;;;3.17;;
22622;SDS011;11478;51.094;7.030;2023-03-23T17:44:06;10.77;;;3.40;;
22622;SDS011;11478;51.094;7.030;2023-03-23T17:49:24;15.07;;;3.50;;
22622;SDS011;11478;51.094;7.030;2023-03-23T17:51:57;10.23;;;3.42;;
22622;SDS011;11478;51.094;7.030;2023-03-23T17:54:23;12.75;;;3.33;;
22622;SDS011;11478;51.094;7.030;2023-03-23T17:57:09;10.80;;;3.55;;
22622;SDS011;11478;51.094;7.030;2023-03-23T18:02:09;11.00;;;3.30;;
22622;SDS011;11478;51.094;7.030;2023-03-23T18:04:38;8.38;;;3.15;;
22622;SDS011;11478;51.094;7.030;2023-03-23T18:07:17;15.02;;;3.55;;
22622;SDS011;11478;51.094;7.030;2023-03-23T18:09:47;16.08;;;3.30;;
22622;SDS011;11478;51.094;7.030;2023-03-23T18:12:18;11.88;;;3.47;;
22622;SDS011;11478;51.094;7.030;2023-03-23T18:14:44;14.13;;;3.55;;
22622;SDS011;11478;51.094;7.030;2023-03-23T18:17:18;19.08;;;3.90;;
22622;SDS011;11478;51.094;7.030;2023-03-23T18:22:11;12.45;;;3.88;;
22622;SDS011;11478;51.094;7.030;2023-03-23T18:24:37;13.88;;;3.60;;
22622;SDS011;11478;51.094;7.030;2023-03-23T18:27:13;11.68;;;3.25;;
22622;SDS011;11478;51.094;7.030;2023-03-23T18:29:51;10.73;;;3.47;;
22622;SDS011;11478;51.094;7.030;2023-03-23T18:32:58;9.52;;;3.60;;
22622;SDS011;11478;51.094;7.030;2023-03-23T18:35:37;10.80;;;3.50;;
22622;SDS011;11478;51.094;7.030;2023-03-23T18:38:03;9.48;;;3.13;;
22622;SDS011;11478;51.094;7.030;2023-03-23T19:24:30;8.87;;;3.17;;
22622;SDS011;11478;51.094;7.030;2023-03-23T19:26:56;9.20;;;3.20;;
22622;SDS011;11478;51.094;7.030;2023-03-23T19:29:22;10.80;;;3.33;;
22622;SDS011;11478;51.094;7.030;2023-03-23T19:31:50;10.73;;;3.38;;
22622;SDS011;11478;51.094;7.030;2023-03-23T19:34:18;14.63;;;3.47;;